Time;durP1;ratioP1;P1;durP2;ratioP2;P2;SDS_P1;SDS_P2;PMS_P1;PMS_P2;Temp;Humidity;BMP_temperature;BMP_pressure;BME280_temperature;BME280_humidity;BME280_pressure;Samples;Min_cycle;Max_cycle;Signal;HPM_P1;HPM_P2
2022/03/08 00:00:07;;;;;;;11.17;10.17;;;;;;;4.50;94.11;99414.06;5094569;28;20245;-73
2022/03/08 00:02:34;;;;;;;11.20;10.37;;;;;;;4.53;94.27;99416.38;5095559;28;20183;-73
2022/03/08 00:05:00;;;;;;;10.43;9.43;;;;;;;4.56;94.12;99412.63;5094113;28;20226;-73
2022/03/08 00:07:28;;;;;;;9.63;8.93;;;;;;;4.62;94.34;99415.41;5094553;28;20195;-73
2022/03/08 00:09:55;;;;;;;9.60;8.80;;;;;;;4.65;93.69;99415.13;5094515;28;20273;-73
2022/03/08 00:12:22;;;;;;;9.37;8.67;;;;;;;4.68;93.35;99416.59;5094501;28;20198;-73
2022/03/08 00:14:49;;;;;;;9.30;8.60;;;;;;;4.65;92.78;99412.47;5093660;28;20573;-74
2022/03/08 00:17:16;;;;;;;9.67;8.90;;;;;;;4.60;92.95;99409.50;5094292;28;20223;-74
2022/03/08 00:19:42;;;;;;;9.90;9.10;;;;;;;4.37;93.13;99412.91;5094304;28;20261;-73
2022/03/08 00:22:09;;;;;;;10.00;9.30;;;;;;;4.15;93.72;99409.03;5093927;28;20191;-73
2022/03/08 00:24:38;;;;;;;9.30;8.60;;;;;;;4.24;94.46;99408.06;5094284;28;20244;-73
2022/03/08 00:27:05;;;;;;;9.60;8.83;;;;;;;4.32;93.98;99412.53;5093818;28;20241;-73
2022/03/08 00:29:31;;;;;;;10.20;9.40;;;;;;;4.35;94.18;99407.78;5094411;28;20195;-73
2022/03/08 00:31:58;;;;;;;9.40;8.70;;;;;;;4.46;94.88;99418.00;5093713;28;20747;-73
2022/03/08 00:34:25;;;;;;;8.93;8.33;;;;;;;4.52;94.09;99411.28;5093833;28;20195;-74
2022/03/08 00:36:51;;;;;;;10.23;9.33;;;;;;;4.57;93.89;99409.81;5094403;28;20223;-73
2022/03/08 00:39:19;;;;;;;8.57;7.97;;;;;;;4.59;93.40;99407.88;5093637;28;20199;-73
2022/03/08 00:41:47;;;;;;;9.37;8.77;;;;;;;4.62;93.93;99402.28;5093494;28;20226;-74
2022/03/08 00:44:14;;;;;;;8.73;8.03;;;;;;;4.58;93.89;99397.50;5093804;28;20191;-73
2022/03/08 00:46:41;;;;;;;8.70;8.10;;;;;;;4.60;94.03;99398.16;5093462;28;20203;-73
2022/03/08 00:49:07;;;;;;;9.10;8.40;;;;;;;4.58;94.19;99394.88;5093413;28;20795;-73
2022/03/08 00:51:34;;;;;;;8.10;7.60;;;;;;;4.49;93.50;99394.03;5093374;28;20621;-73
2022/03/08 00:54:01;;;;;;;9.07;8.47;;;;;;;4.09;93.80;99388.59;5094165;28;20192;-73
2022/03/08 00:56:27;;;;;;;8.23;7.63;;;;;;;3.88;95.61;99382.94;5093740;28;20280;-73
2022/03/08 00:58:55;;;;;;;9.07;8.27;;;;;;;4.00;95.65;99373.78;5093278;28;20662;-74
2022/03/08 01:01:22;;;;;;;7.90;7.30;;;;;;;4.02;96.08;99361.34;5093231;28;20654;-73
2022/03/08 01:03:49;;;;;;;7.97;7.30;;;;;;;4.17;96.07;99361.56;5093286;28;20529;-73
2022/03/08 01:06:15;;;;;;;7.70;7.20;;;;;;;4.11;95.41;99365.63;5093451;28;20203;-73
2022/03/08 01:08:42;;;;;;;7.67;7.17;;;;;;;4.18;95.61;99371.91;5093063;28;20759;-73
2022/03/08 01:11:09;;;;;;;8.10;7.47;;;;;;;4.23;95.58;99374.88;5093513;28;20239;-73
2022/03/08 01:13:36;;;;;;;7.33;6.90;;;;;;;4.29;95.71;99368.97;5092953;28;20217;-73
2022/03/08 01:16:04;;;;;;;8.70;8.10;;;;;;;4.23;95.18;99374.88;5093295;28;20555;-73
2022/03/08 01:18:31;;;;;;;8.67;8.00;;;;;;;4.21;95.18;99371.56;5094129;28;20248;-73
2022/03/08 01:20:59;;;;;;;8.43;7.93;;;;;;;4.29;95.45;99387.38;5092815;28;20214;-73
2022/03/08 01:23:25;;;;;;;7.60;7.20;;;;;;;4.28;95.66;99385.75;5093394;28;20199;-73
2022/03/08 01:25:52;;;;;;;8.67;7.87;;;;;;;4.03;96.04;99386.63;5092153;28;20209;-73
2022/03/08 01:28:19;;;;;;;8.60;8.10;;;;;;;3.86;97.27;99392.78;5092932;28;20195;-73
2022/03/08 01:30:47;;;;;;;7.93;7.33;;;;;;;3.98;96.94;99386.28;5092921;28;20568;-73
2022/03/08 01:33:15;;;;;;;8.33;7.73;;;;;;;4.03;96.62;99393.66;5092613;28;20725;-73
2022/03/08 01:35:41;;;;;;;8.47;7.83;;;;;;;4.07;96.63;99395.00;5092456;28;20195;-73
2022/03/08 01:38:08;;;;;;;8.73;8.03;;;;;;;4.10;97.19;99390.28;5093567;28;20195;-73
2022/03/08 01:40:35;;;;;;;8.70;8.00;;;;;;;4.11;96.56;99396.34;5093068;28;20233;-73
2022/03/08 01:43:02;;;;;;;8.97;8.27;;;;;;;4.11;96.70;99397.19;5093037;28;20191;-73
2022/03/08 01:45:28;;;;;;;8.77;8.17;;;;;;;4.11;96.63;99397.19;5093247;28;20441;-73
2022/03/08 01:47:56;;;;;;;9.40;8.70;;;;;;;4.18;96.58;99398.19;5092350;28;20191;-73
2022/03/08 01:50:24;;;;;;;9.27;8.47;;;;;;;4.17;95.86;99400.97;5092903;28;20252;-73
2022/03/08 01:52:51;;;;;;;10.17;9.37;;;;;;;4.19;96.20;99394.59;5092876;28;20265;-73
2022/03/08 01:55:18;;;;;;;9.83;8.93;;;;;;;4.13;96.22;99397.81;5093278;28;20240;-73
2022/03/08 01:57:46;;;;;;;10.27;9.27;;;;;;;3.52;98.50;99394.53;5092429;28;20214;-74
2022/03/08 02:00:19;;;;;;;20.13;12.20;;;;;;;3.23;100.00;99388.72;5092519;28;20252;-73
2022/03/08 02:02:46;;;;;;;25.57;14.03;;;;;;;3.22;100.00;99397.59;5093380;28;20494;-73
2022/03/08 02:05:13;;;;;;;21.83;13.17;;;;;;;3.33;100.00;99396.53;5093311;28;20477;-72
2022/03/08 02:07:42;;;;;;;21.37;13.77;;;;;;;3.46;100.00;99394.31;5092141;28;20195;-72
2022/03/08 02:10:10;;;;;;;22.87;13.93;;;;;;;3.60;100.00;99401.66;5092705;28;20804;-73
2022/03/08 02:12:37;;;;;;;14.23;11.33;;;;;;;3.70;100.00;99408.44;5092084;28;20724;-73
2022/03/08 02:15:19;;;;;;;12.47;11.27;;;;;;;3.66;100.00;99412.34;5092090;28;20655;-73
2022/03/08 02:17:46;;;;;;;10.83;9.90;;;;;;;3.76;100.00;99409.63;5090566;28;20476;-74
2022/03/08 02:20:14;;;;;;;11.50;10.50;;;;;;;3.79;100.00;99407.50;5091547;28;20237;-73
2022/03/08 02:22:43;;;;;;;13.27;11.93;;;;;;;3.31;100.00;99416.88;5090520;28;20187;-74
2022/03/08 02:25:10;;;;;;;12.93;11.63;;;;;;;3.33;100.00;99409.66;5091933;28;20244;-73
2022/03/08 02:27:41;;;;;;;13.80;12.50;;;;;;;3.51;100.00;99406.00;5092152;28;20498;-73
2022/03/08 02:30:09;;;;;;;14.00;12.50;;;;;;;3.65;100.00;99410.72;5091884;28;20498;-73
2022/03/08 02:32:36;;;;;;;17.40;14.23;;;;;;;3.82;100.00;99409.84;5092670;28;20195;-75
2022/03/08 02:35:08;;;;;;;14.80;13.40;;;;;;;3.93;100.00;99408.75;5092148;28;20261;-73
2022/03/08 02:37:38;;;;;;;14.13;12.63;;;;;;;4.01;100.00;99411.41;5092703;28;20264;-73
2022/03/08 02:40:09;;;;;;;13.67;12.27;;;;;;;3.83;99.14;99410.63;5095958;28;20179;-73
2022/03/08 02:42:35;;;;;;;15.20;13.60;;;;;;;3.85;99.45;99408.69;5095989;28;20187;-72
2022/03/08 02:45:02;;;;;;;14.77;12.87;;;;;;;3.91;98.72;99406.28;5096134;28;20187;-72
2022/03/08 02:47:29;;;;;;;15.60;13.73;;;;;;;4.02;98.91;99406.00;5095781;28;20681;-73
2022/03/08 02:49:56;;;;;;;14.87;13.30;;;;;;;4.03;98.10;99399.75;5096548;28;20195;-73
2022/03/08 02:52:22;;;;;;;14.97;13.27;;;;;;;4.12;98.27;99390.94;5096002;28;20244;-73
2022/03/08 02:54:49;;;;;;;15.70;14.10;;;;;;;4.20;98.67;99393.59;5095603;28;20191;-73
2022/03/08 02:57:17;;;;;;;17.83;14.50;;;;;;;4.06;98.45;99404.72;5095839;28;20244;-73
2022/03/08 02:59:44;;;;;;;16.80;14.63;;;;;;;4.15;98.47;99393.25;5095921;28;20187;-73
2022/03/08 03:02:11;;;;;;;20.07;14.77;;;;;;;4.14;97.87;99402.13;5096698;28;20194;-73
2022/03/08 03:04:37;;;;;;;18.07;14.70;;;;;;;4.25;98.32;99399.19;5096041;28;20280;-73
2022/03/08 03:07:05;;;;;;;18.97;15.53;;;;;;;4.27;97.46;99402.50;5095566;28;20666;-73
2022/03/08 03:09:31;;;;;;;19.83;15.30;;;;;;;4.28;97.65;99398.88;5095632;28;20255;-73
2022/03/08 03:11:58;;;;;;;21.03;15.87;;;;;;;4.35;97.19;99405.16;5095954;28;20194;-73
2022/03/08 03:14:26;;;;;;;19.20;14.63;;;;;;;4.35;96.59;99409.59;5095312;28;20624;-74
2022/03/08 03:16:53;;;;;;;19.97;15.13;;;;;;;4.21;96.13;99407.56;5095965;28;20233;-73
2022/03/08 03:19:20;;;;;;;19.53;15.73;;;;;;;4.23;95.80;99410.84;5095182;28;20195;-73
2022/03/08 03:21:46;;;;;;;19.97;15.67;;;;;;;4.11;96.38;99410.31;5095108;28;20577;-73
2022/03/08 03:24:13;;;;;;;18.93;14.70;;;;;;;4.24;96.22;99408.06;5095719;28;20187;-72
2022/03/08 03:26:40;;;;;;;22.17;16.10;;;;;;;4.32;96.23;99416.00;5095371;28;20256;-73
2022/03/08 03:29:06;;;;;;;19.20;14.97;;;;;;;4.41;96.17;99422.91;5095533;28;20252;-72
2022/03/08 03:31:34;;;;;;;19.20;15.83;;;;;;;4.44;95.10;99419.97;5094950;28;20541;-73
2022/03/08 03:34:01;;;;;;;19.03;15.37;;;;;;;4.52;95.36;99421.81;5094902;28;20192;-73
2022/03/08 03:36:29;;;;;;;21.17;14.57;;;;;;;4.52;94.52;99414.75;5094752;28;20223;-73
2022/03/08 03:38:56;;;;;;;20.63;15.17;;;;;;;4.53;94.63;99408.50;5095405;28;20272;-73
2022/03/08 03:41:22;;;;;;;17.77;14.33;;;;;;;4.49;95.14;99412.44;5094958;28;20629;-73
2022/03/08 03:43:49;;;;;;;21.23;15.60;;;;;;;4.41;94.58;99412.41;5094993;28;20249;-73
2022/03/08 03:46:16;;;;;;;23.43;16.23;;;;;;;4.43;95.02;99420.97;5095001;28;20191;-73
2022/03/08 03:48:44;;;;;;;22.93;16.00;;;;;;;4.44;96.03;99421.78;5094119;28;20191;-73
2022/03/08 03:51:11;;;;;;;21.63;15.57;;;;;;;4.42;96.05;99421.94;5094771;28;20187;-73
2022/03/08 03:53:38;;;;;;;17.77;13.50;;;;;;;4.42;96.00;99423.75;5094819;28;20201;-73
2022/03/08 03:56:05;;;;;;;19.03;14.53;;;;;;;4.34;95.38;99418.47;5094494;28;20213;-73
2022/03/08 03:58:32;;;;;;;16.43;14.37;;;;;;;4.40;95.73;99423.06;5094346;28;20265;-73
2022/03/08 04:00:59;;;;;;;17.30;14.43;;;;;;;4.47;96.13;99417.03;5095409;28;20195;-73
2022/03/08 04:03:26;;;;;;;15.97;14.10;;;;;;;4.54;95.88;99415.41;5094470;28;20256;-73
2022/03/08 04:05:54;;;;;;;19.50;14.87;;;;;;;4.62;95.70;99417.25;5095202;28;20577;-73
2022/03/08 04:08:21;;;;;;;16.63;13.77;;;;;;;4.67;95.27;99409.69;5094808;28;20195;-73
2022/03/08 04:10:48;;;;;;;19.10;13.57;;;;;;;4.57;94.44;99399.31;5094465;28;20191;-73
2022/03/08 04:13:15;;;;;;;16.27;13.07;;;;;;;4.71;94.30;99419.72;5094509;28;20195;-73
2022/03/08 04:15:42;;;;;;;18.33;14.90;;;;;;;4.68;93.41;99416.59;5094102;28;20191;-73
2022/03/08 04:18:09;;;;;;;18.70;16.13;;;;;;;4.69;94.29;99413.81;5093846;28;20620;-73
2022/03/08 04:20:36;;;;;;;18.07;15.87;;;;;;;4.70;93.92;99407.56;5094880;28;20191;-73
2022/03/08 04:23:04;;;;;;;17.03;14.43;;;;;;;4.80;94.17;99421.41;5094229;28;20731;-73
2022/03/08 04:25:31;;;;;;;16.97;13.97;;;;;;;4.83;93.98;99421.06;5093841;28;20577;-73
2022/03/08 04:27:58;;;;;;;19.73;15.90;;;;;;;4.85;93.76;99416.47;5093855;28;20331;-73
2022/03/08 04:30:25;;;;;;;20.30;15.53;;;;;;;4.89;93.77;99417.81;5093765;28;20635;-73
2022/03/08 04:32:52;;;;;;;18.90;14.80;;;;;;;4.93;92.97;99424.38;5093724;28;20199;-73
2022/03/08 04:35:18;;;;;;;24.03;16.23;;;;;;;4.88;92.85;99426.69;5093753;28;20228;-73
2022/03/08 04:37:46;;;;;;;17.77;15.27;;;;;;;4.92;93.18;99435.06;5093571;28;20714;-73
2022/03/08 04:40:15;;;;;;;20.33;15.13;;;;;;;4.95;93.06;99435.56;5094984;28;20198;-73
2022/03/08 04:42:42;;;;;;;16.77;14.97;;;;;;;4.88;92.95;99437.22;5093484;28;20248;-74
2022/03/08 04:45:11;;;;;;;16.00;14.37;;;;;;;4.83;92.80;99431.59;5094008;28;20199;-73
2022/03/08 04:47:38;;;;;;;16.17;14.07;;;;;;;4.81;92.31;99433.56;5094577;28;20195;-74
2022/03/08 04:50:07;;;;;;;17.53;14.93;;;;;;;4.84;93.13;99449.03;5093438;28;20191;-73
2022/03/08 04:52:33;;;;;;;16.67;13.33;;;;;;;4.85;93.59;99439.31;5093585;28;20241;-73
2022/03/08 04:55:00;;;;;;;15.60;13.97;;;;;;;4.80;93.57;99439.81;5093342;28;20751;-72
2022/03/08 04:57:28;;;;;;;15.97;12.70;;;;;;;4.80;93.77;99442.44;5093552;28;20634;-72
2022/03/08 04:59:55;;;;;;;17.87;13.67;;;;;;;4.78;93.60;99439.16;5093454;28;20257;-73
2022/03/08 05:02:22;;;;;;;14.97;13.10;;;;;;;4.71;92.73;99445.22;5093430;28;20199;-72
2022/03/08 05:04:48;;;;;;;21.13;14.60;;;;;;;4.72;92.67;99450.31;5092787;28;20231;-73
2022/03/08 05:07:15;;;;;;;20.77;14.23;;;;;;;4.81;92.89;99446.72;5094108;28;20252;-72
2022/03/08 05:09:42;;;;;;;18.10;14.77;;;;;;;4.85;93.36;99445.41;5093228;28;20248;-72
2022/03/08 05:12:09;;;;;;;15.87;14.07;;;;;;;4.74;92.65;99453.59;5093497;28;20558;-72
2022/03/08 05:14:38;;;;;;;18.97;14.00;;;;;;;4.76;92.91;99458.72;5092863;28;20723;-72
2022/03/08 05:17:05;;;;;;;17.73;14.07;;;;;;;4.80;93.13;99458.25;5092722;28;20701;-72
2022/03/08 05:19:31;;;;;;;126.70;82.83;;;;;;;4.82;95.15;99450.19;5092914;28;20244;-85
2022/03/08 05:21:58;;;;;;;168.90;114.13;;;;;;;6.06;100.00;99448.06;5093109;28;20247;-73
2022/03/08 05:24:25;;;;;;;105.80;71.87;;;;;;;7.08;100.00;99452.25;5092012;28;20196;-75
2022/03/08 05:26:52;;;;;;;34.33;25.00;;;;;;;8.08;100.00;99455.41;5092792;28;20195;-68
2022/03/08 05:29:18;;;;;;;20.23;18.00;;;;;;;8.54;91.58;99464.84;5093469;28;20202;-69
2022/03/08 05:31:47;;;;;;;15.63;13.83;;;;;;;8.56;80.40;99462.81;5093053;28;20606;-69
2022/03/08 05:34:14;;;;;;;14.93;13.40;;;;;;;8.37;79.02;99471.31;5090764;28;20252;-68
2022/03/08 05:36:41;;;;;;;14.33;12.80;;;;;;;7.85;79.06;99468.69;5092490;28;20187;-70
2022/03/08 05:39:08;;;;;;;12.13;11.13;;;;;;;7.54;78.83;99486.44;5092717;28;20325;-74
2022/03/08 05:41:34;;;;;;;11.60;10.60;;;;;;;7.21;81.55;99473.63;5092432;28;20191;-76
2022/03/08 05:44:01;;;;;;;12.27;11.07;;;;;;;6.94;80.28;99471.50;5083925;28;20578;-73
2022/03/08 05:46:28;;;;;;;15.10;13.60;;;;;;;6.66;83.52;99468.47;5072390;28;20191;-72
2022/03/08 05:48:56;;;;;;;13.83;12.57;;;;;;;6.44;83.13;99468.41;5072048;28;20659;-73
2022/03/08 05:51:23;;;;;;;11.13;10.13;;;;;;;6.27;83.19;99472.09;5083677;28;20218;-72
2022/03/08 05:53:49;;;;;;;11.90;10.70;;;;;;;6.12;84.45;99463.25;5092386;28;20203;-73
2022/03/08 05:56:16;;;;;;;10.73;9.60;;;;;;;5.97;84.22;99471.00;5092716;28;20191;-72
2022/03/08 05:58:43;;;;;;;11.67;10.67;;;;;;;5.87;84.90;99474.81;5093363;28;20268;-73
2022/03/08 06:01:10;;;;;;;12.57;11.53;;;;;;;5.75;85.12;99477.75;5092041;28;20198;-73
2022/03/08 06:03:36;;;;;;;13.40;12.30;;;;;;;5.45;86.31;99470.53;5091847;28;20191;-73
2022/03/08 06:06:05;;;;;;;11.50;10.43;;;;;;;5.50;86.65;99489.28;5089309;28;20199;-72
2022/03/08 06:08:32;;;;;;;12.23;10.93;;;;;;;5.40;87.12;99488.59;5091202;28;20253;-72
2022/03/08 06:10:58;;;;;;;11.93;10.73;;;;;;;5.37;87.80;99482.84;5091749;28;20196;-77
2022/03/08 06:13:25;;;;;;;12.80;11.57;;;;;;;5.22;87.30;99489.72;5091782;28;20252;-74
2022/03/08 06:15:52;;;;;;;12.67;10.80;;;;;;;5.21;89.69;99483.66;5092092;28;20210;-74
2022/03/08 06:18:19;;;;;;;15.33;12.77;;;;;;;5.01;88.99;99477.03;5092194;28;20292;-74
2022/03/08 06:20:45;;;;;;;15.70;13.20;;;;;;;4.90;90.19;99485.22;5092133;28;20252;-73
2022/03/08 06:23:14;;;;;;;18.77;13.33;;;;;;;4.89;90.80;99483.59;5091852;28;20596;-75
2022/03/08 06:25:41;;;;;;;17.43;14.73;;;;;;;4.88;90.50;99481.94;5092208;28;20215;-73
2022/03/08 06:28:07;;;;;;;22.70;16.67;;;;;;;5.05;91.74;99494.16;5092186;28;20195;-76
2022/03/08 06:30:34;;;;;;;24.33;17.10;;;;;;;5.27;92.34;99490.91;5092215;28;20199;-73
2022/03/08 06:33:01;;;;;;;22.50;16.53;;;;;;;5.47;92.15;99489.59;5081855;28;20239;-73
2022/03/08 06:35:28;;;;;;;20.30;16.40;;;;;;;5.58;89.25;99499.84;5087704;28;20191;-73
2022/03/08 06:37:54;;;;;;;22.80;15.77;;;;;;;5.60;89.20;99494.41;5073130;28;20273;-75
2022/03/08 06:40:23;;;;;;;18.13;14.47;;;;;;;5.41;88.68;99492.91;5074909;28;20236;-73
2022/03/08 06:42:49;;;;;;;18.10;14.93;;;;;;;5.36;88.72;99502.28;5091887;28;20264;-71
2022/03/08 06:45:17;;;;;;;17.23;14.13;;;;;;;5.18;88.22;99505.03;5092288;28;20623;-71
2022/03/08 06:47:43;;;;;;;22.40;15.77;;;;;;;5.09;88.68;99506.00;5091863;28;20728;-71
2022/03/08 06:50:11;;;;;;;17.97;15.43;;;;;;;5.06;89.37;99489.69;5077602;28;20200;-71
2022/03/08 06:52:37;;;;;;;19.43;14.43;;;;;;;4.95;88.89;99493.47;5071562;28;20721;-71
2022/03/08 06:55:05;;;;;;;20.80;15.57;;;;;;;4.89;88.88;99517.78;5071655;28;20195;-69
2022/03/08 06:57:33;;;;;;;21.30;14.60;;;;;;;4.78;89.92;99515.44;5071047;28;20234;-70
2022/03/08 07:00:00;;;;;;;18.40;14.80;;;;;;;4.76;90.51;99522.69;5071691;28;20269;-72
2022/03/08 07:02:27;;;;;;;20.00;14.97;;;;;;;4.79;90.78;99513.66;5071611;28;20660;-71
2022/03/08 07:04:54;;;;;;;26.60;16.97;;;;;;;4.74;90.46;99508.03;5071999;28;20235;-70
2022/03/08 07:07:20;;;;;;;19.23;15.77;;;;;;;4.94;91.61;99512.03;5071420;28;20196;-71
2022/03/08 07:09:47;;;;;;;24.20;16.00;;;;;;;5.15;92.24;99513.25;5071306;28;20585;-72
2022/03/08 07:12:14;;;;;;;20.10;15.07;;;;;;;5.40;93.42;99514.94;5072169;28;20199;-70
2022/03/08 07:14:42;;;;;;;19.47;13.80;;;;;;;5.47;91.44;99515.94;5071615;28;20196;-70
2022/03/08 07:17:09;;;;;;;15.80;14.20;;;;;;;5.40;90.37;99504.41;5070950;28;20202;-72
2022/03/08 07:19:36;;;;;;;16.63;12.87;;;;;;;5.41;89.32;99516.63;5071016;28;20227;-71
2022/03/08 07:22:03;;;;;;;14.63;12.87;;;;;;;5.40;89.16;99519.41;5071117;28;20245;-72
2022/03/08 07:24:30;;;;;;;15.73;12.60;;;;;;;5.33;88.27;99521.88;5071707;28;20207;-73
2022/03/08 07:26:57;;;;;;;14.90;13.30;;;;;;;5.34;88.87;99520.88;5075115;28;20203;-74
2022/03/08 07:29:24;;;;;;;17.47;14.90;;;;;;;5.35;88.26;99516.41;5074546;28;20199;-76
2022/03/08 07:31:52;;;;;;;21.30;14.67;;;;;;;5.22;88.67;99511.63;5074358;28;20192;-74
2022/03/08 07:34:19;;;;;;;14.17;12.77;;;;;;;5.29;88.89;99512.63;5086458;28;20641;-74
2022/03/08 07:36:46;;;;;;;16.60;13.80;;;;;;;4.81;88.47;99509.88;5094731;28;20619;-71
2022/03/08 07:39:12;;;;;;;15.87;13.37;;;;;;;4.85;89.34;99513.84;5094882;28;20222;-72
2022/03/08 07:41:39;;;;;;;15.47;13.23;;;;;;;4.80;89.40;99515.28;5085583;28;20247;-72
2022/03/08 07:44:06;;;;;;;16.23;12.93;;;;;;;4.60;89.77;99501.56;5114794;28;20666;-71
2022/03/08 07:46:33;;;;;;;16.23;13.07;;;;;;;4.63;90.62;99501.25;5114905;28;20661;-71
2022/03/08 07:49:01;;;;;;;16.10;13.77;;;;;;;4.80;90.96;99515.28;5114855;28;20666;-72
2022/03/08 07:51:27;;;;;;;17.60;13.27;;;;;;;4.88;90.78;99515.31;5115116;28;20190;-72
2022/03/08 07:53:54;;;;;;;18.23;15.53;;;;;;;4.93;90.96;99516.50;5115128;27;20252;-71
2022/03/08 07:56:21;;;;;;;16.77;13.87;;;;;;;4.78;90.58;99497.03;5115271;28;20194;-71
2022/03/08 07:58:48;;;;;;;19.77;14.40;;;;;;;4.94;90.59;99512.03;5102698;28;20285;-70
2022/03/08 08:01:15;;;;;;;14.63;13.13;;;;;;;4.99;90.49;99504.50;5083122;28;20254;-71
2022/03/08 08:03:41;;;;;;;15.53;13.90;;;;;;;5.03;90.47;99496.13;5072534;28;21015;-75
2022/03/08 08:06:10;;;;;;;19.13;13.40;;;;;;;5.00;90.92;99490.34;5089412;28;20302;-73
2022/03/08 08:08:36;;;;;;;16.77;14.20;;;;;;;5.05;89.91;99488.91;5094237;28;20195;-74
2022/03/08 08:11:03;;;;;;;13.57;12.27;;;;;;;4.92;90.28;99487.69;5094769;28;20627;-72
2022/03/08 08:13:30;;;;;;;16.13;12.97;;;;;;;4.92;90.58;99488.53;5094443;28;20199;-72
2022/03/08 08:15:57;;;;;;;14.00;12.50;;;;;;;5.00;90.56;99485.09;5094098;28;20195;-78
2022/03/08 08:18:24;;;;;;;15.23;12.90;;;;;;;5.09;90.64;99484.97;5094221;28;20230;-73
2022/03/08 08:20:51;;;;;;;19.80;14.90;;;;;;;4.98;90.25;99485.25;5093906;28;20194;-72
2022/03/08 08:23:19;;;;;;;18.73;15.77;;;;;;;4.77;91.36;99484.88;5094167;27;20191;-75
2022/03/08 08:25:46;;;;;;;19.03;15.20;;;;;;;4.96;91.35;99489.03;5093859;28;20195;-73
2022/03/08 08:28:12;;;;;;;22.60;17.27;;;;;;;4.73;91.89;99483.53;5092693;28;20195;-73
2022/03/08 08:30:39;;;;;;;17.00;15.20;;;;;;;4.57;92.96;99488.72;5093603;28;20612;-73
2022/03/08 08:33:06;;;;;;;16.50;13.20;;;;;;;4.83;93.17;99488.66;5092302;28;20191;-73
2022/03/08 08:35:32;;;;;;;19.20;15.03;;;;;;;5.08;93.60;99483.31;5092625;28;20249;-71
2022/03/08 08:37:59;;;;;;;18.67;15.27;;;;;;;5.28;92.70;99478.56;5093114;28;20199;-73
2022/03/08 08:40:27;;;;;;;21.00;15.77;;;;;;;5.46;91.28;99487.97;5093806;28;20191;-72
2022/03/08 08:42:54;;;;;;;17.73;14.63;;;;;;;5.61;90.78;99483.66;5093916;28;20265;-73
2022/03/08 08:45:21;;;;;;;28.00;17.73;;;;;;;5.81;90.61;99486.84;5093393;28;20203;-72
2022/03/08 08:47:48;;;;;;;21.83;16.10;;;;;;;5.86;89.09;99483.69;5094330;28;20196;-73
2022/03/08 08:50:14;;;;;;;18.10;14.53;;;;;;;5.95;88.51;99482.72;5092863;28;20195;-73
2022/03/08 08:52:41;;;;;;;20.00;15.43;;;;;;;6.08;88.38;99483.03;5093719;28;20623;-73
2022/03/08 08:55:08;;;;;;;17.23;14.13;;;;;;;5.96;88.05;99481.72;5093698;28;20272;-75
2022/03/08 08:57:36;;;;;;;25.37;16.57;;;;;;;6.08;88.53;99493.56;5093557;28;20191;-74
2022/03/08 09:00:04;;;;;;;24.87;16.30;;;;;;;6.19;87.17;99495.84;5093095;28;20219;-73
2022/03/08 09:02:31;;;;;;;20.87;14.53;;;;;;;6.26;86.62;99492.38;5093060;28;20196;-74
2022/03/08 09:04:58;;;;;;;20.23;14.30;;;;;;;6.32;86.82;99482.97;5093263;28;20702;-73
2022/03/08 09:07:25;;;;;;;16.27;13.10;;;;;;;6.31;85.27;99494.50;5093396;28;20651;-73
2022/03/08 09:09:51;;;;;;;14.63;12.30;;;;;;;6.14;84.33;99492.88;5093478;28;20273;-74
2022/03/08 09:12:18;;;;;;;15.47;13.43;;;;;;;5.99;85.90;99491.91;5093137;28;20199;-74
2022/03/08 09:14:46;;;;;;;15.13;12.23;;;;;;;5.89;86.79;99484.22;5092878;28;20241;-73
2022/03/08 09:17:13;;;;;;;12.10;10.80;;;;;;;5.63;86.49;99489.63;5092842;28;20662;-73
2022/03/08 09:19:40;;;;;;;10.80;9.90;;;;;;;5.59;86.93;99485.66;5093111;28;20219;-73
2022/03/08 09:22:06;;;;;;;10.23;9.43;;;;;;;5.56;85.85;99482.53;5092768;28;20265;-73
2022/03/08 09:24:35;;;;;;;11.60;10.37;;;;;;;5.60;86.65;99494.41;5092617;28;20662;-72
2022/03/08 09:27:02;;;;;;;12.13;10.97;;;;;;;5.65;86.77;99490.25;5092832;28;20202;-72
2022/03/08 09:29:29;;;;;;;12.63;11.47;;;;;;;5.33;87.13;99486.78;5092875;28;20260;-73
2022/03/08 09:31:58;;;;;;;12.83;11.47;;;;;;;5.20;88.21;99489.91;5092502;28;20196;-74
2022/03/08 09:34:24;;;;;;;16.33;14.67;;;;;;;5.23;89.10;99497.47;5092754;28;20576;-74
2022/03/08 09:36:51;;;;;;;11.27;10.37;;;;;;;5.30;89.68;99493.22;5092398;28;20191;-72
2022/03/08 09:39:18;;;;;;;12.60;11.33;;;;;;;5.41;88.11;99494.72;5092773;28;20222;-71
2022/03/08 09:41:45;;;;;;;10.10;9.10;;;;;;;6.33;100.00;99487.25;5079764;28;20183;-82
2022/03/08 09:44:12;;;;;;;11.90;10.90;;;;;;;6.57;93.35;99492.44;5092581;28;20706;-78
2022/03/08 09:46:39;;;;;;;10.97;9.90;;;;;;;6.53;86.03;99501.69;5092620;28;20191;-78
2022/03/08 09:49:07;;;;;;;13.33;11.07;;;;;;;6.55;83.80;99507.63;5093362;28;20191;-81
2022/03/08 09:51:37;;;;;;;11.30;10.30;;;;;;;6.51;84.24;99501.03;5112931;28;20571;-78
2022/03/08 09:54:05;;;;;;;11.17;10.17;;;;;;;6.60;84.12;99503.47;5112668;28;20198;-77
2022/03/08 09:56:33;;;;;;;9.90;9.13;;;;;;;6.61;83.64;99509.59;5102439;28;20252;-75
2022/03/08 09:59:00;;;;;;;10.87;10.00;;;;;;;6.61;83.21;99509.59;5092584;28;20224;-75
2022/03/08 10:01:28;;;;;;;10.47;9.33;;;;;;;6.58;83.01;99497.56;5092474;28;20199;-75
2022/03/08 10:03:55;;;;;;;9.70;9.00;;;;;;;6.70;82.63;99511.19;5091966;28;20695;-78
2022/03/08 10:06:24;;;;;;;11.30;10.13;;;;;;;6.49;81.89;99508.31;5091731;28;20206;-76
2022/03/08 10:09:10;;;;;;;10.90;10.00;;;;;;;6.23;82.66;99492.72;5093193;28;20198;-77
2022/03/08 10:11:39;;;;;;;13.47;12.13;;;;;;;6.29;83.34;99512.31;5092652;28;20656;-76
2022/03/08 10:14:06;;;;;;;13.67;12.20;;;;;;;6.22;83.44;99512.16;5092139;28;20242;-77
2022/03/08 10:16:42;;;;;;;12.20;11.00;;;;;;;5.13;85.71;99511.78;5092452;28;20191;-80
2022/03/08 10:19:11;;;;;;;14.10;12.60;;;;;;;5.36;86.12;99510.19;5092248;28;20297;-76
2022/03/08 10:21:40;;;;;;;15.00;13.00;;;;;;;5.52;86.35;99507.56;5091815;28;20265;-76
2022/03/08 10:24:14;;;;;;;16.87;12.80;;;;;;;5.63;85.73;99515.97;5092630;28;20685;-77
2022/03/08 10:26:47;;;;;;;13.63;12.30;;;;;;;5.78;85.71;99514.31;5092184;28;20183;-78
2022/03/08 10:29:14;;;;;;;17.57;15.27;;;;;;;5.84;84.32;99517.31;5092516;28;20604;-77
2022/03/08 10:31:41;;;;;;;14.43;11.93;;;;;;;5.89;85.58;99515.00;5092331;28;20252;-77
2022/03/08 10:34:15;;;;;;;15.23;13.70;;;;;;;6.01;85.14;99521.59;5092886;28;20198;-77
2022/03/08 10:36:59;;;;;;;14.97;13.03;;;;;;;6.09;84.99;99516.31;5093387;28;20185;-79
2022/03/08 10:39:26;;;;;;;14.40;12.03;;;;;;;6.15;83.61;99523.53;5092724;28;20215;-78
2022/03/08 10:41:55;;;;;;;16.03;12.73;;;;;;;6.21;84.34;99520.25;5092432;28;20199;-77
2022/03/08 10:44:33;;;;;;;15.50;12.90;;;;;;;6.37;83.97;99514.94;5092835;28;20222;-78
2022/03/08 10:47:02;;;;;;;16.90;12.17;;;;;;;6.50;83.58;99523.13;5091195;28;20247;-84
2022/03/08 10:49:29;;;;;;;19.50;12.47;;;;;;;6.49;81.58;99524.13;5092712;28;20667;-78
2022/03/08 10:52:05;;;;;;;13.20;11.83;;;;;;;6.14;81.89;99471.78;5092209;28;20722;-77
2022/03/08 10:54:33;;;;;;;19.93;11.70;;;;;;;6.44;81.60;99526.44;5092828;28;20282;-77
2022/03/08 10:57:00;;;;;;;11.20;10.10;;;;;;;6.56;80.64;99538.28;5092103;28;20191;-77
2022/03/08 10:59:27;;;;;;;11.50;10.20;;;;;;;6.64;80.72;99530.34;5095170;28;20222;-79
2022/03/08 11:01:54;;;;;;;11.90;10.87;;;;;;;6.66;79.88;99536.28;5095854;28;20535;-77
2022/03/08 11:04:22;;;;;;;12.20;11.00;;;;;;;6.75;80.20;99535.25;5096171;28;20235;-77
2022/03/08 11:06:52;;;;;;;11.47;10.03;;;;;;;6.67;79.42;99522.09;5093336;28;20732;-77
2022/03/08 11:09:21;;;;;;;12.83;10.60;;;;;;;6.64;79.97;99512.69;5083517;28;20192;-80
2022/03/08 11:11:48;;;;;;;10.57;9.03;;;;;;;6.80;80.54;99538.19;5082065;28;20193;-79
2022/03/08 11:14:15;;;;;;;12.37;9.87;;;;;;;6.82;80.17;99530.94;5116479;28;20200;-77
2022/03/08 11:16:46;;;;;;;12.60;11.33;;;;;;;6.85;79.58;99531.41;5102973;28;20196;-77
2022/03/08 11:19:13;;;;;;;13.17;11.87;;;;;;;6.11;80.07;99522.22;5095779;28;20260;-77
2022/03/08 11:21:40;;;;;;;12.37;11.10;;;;;;;6.25;80.83;99529.47;5110710;28;20199;-77
2022/03/08 11:24:09;;;;;;;12.37;11.10;;;;;;;6.36;80.94;99518.56;5111690;28;20196;-78
2022/03/08 11:26:38;;;;;;;13.03;11.63;;;;;;;6.52;80.72;99514.06;5096016;28;20191;-76